Ash Ridge, Ohio
Current Conditions -  °F | °C
As of 6:55 PM on Friday 28 Nov 2014 (Local Time) from KFGX Reporting Station
Clear Clear  
Wind Chill: 23°   Ceiling: Unl
Heat Index: 31°   Visibility: 10mi
Dew Point: 19°   Wind: 8mph
Humidity: 62%   Direction: 170°S
Pressure: 30.21"   Gusts: NA
Location:  38.8698°N, 83.9081°W
Report Text: KFGX 282355Z AUTO 17007KT 10SM CLR M01/M07 A3021 RMK AO2 T10081072 10015 21012
Loading
Personal Weather Stations






























Interactive Weather Map New forecast layout! Learn more

10-Day Weather Forecast

Advertisements
Track Severe Weather on mobile